createdAt,value
2022-10-13T00:01:15.183Z,22.70
2022-10-13T00:03:43.353Z,22.60
2022-10-13T00:06:14.669Z,23.15
2022-10-13T00:08:42.548Z,22.23
2022-10-13T00:11:20.480Z,23.23
2022-10-13T00:13:49.251Z,20.35
2022-10-13T00:16:19.173Z,18.65
2022-10-13T00:18:46.792Z,18.13
2022-10-13T00:21:19.897Z,16.08
2022-10-13T00:23:47.524Z,16.42
2022-10-13T00:26:16.756Z,14.68
2022-10-13T00:28:46.346Z,15.00
2022-10-13T00:31:28.164Z,14.63
2022-10-13T00:33:59.831Z,14.20
2022-10-13T00:36:27.807Z,14.02
2022-10-13T00:38:56.425Z,13.32
2022-10-13T00:41:26.352Z,13.15
2022-10-13T00:44:01.160Z,14.18
2022-10-13T00:46:36.477Z,15.02
2022-10-13T00:49:14.397Z,18.45
2022-10-13T00:51:44.823Z,20.73
2022-10-13T00:54:16.714Z,14.95
2022-10-13T00:56:45.741Z,13.40
2022-10-13T00:59:20.409Z,12.60
2022-10-13T01:01:47.701Z,10.18
2022-10-13T01:04:16.605Z,11.23
2022-10-13T01:06:48.859Z,10.57
2022-10-13T01:09:16.470Z,11.05
2022-10-13T01:12:03.785Z,10.00
2022-10-13T01:14:43.853Z,11.32
2022-10-13T01:17:38.391Z,10.43
2022-10-13T01:20:15.067Z,10.10
2022-10-13T01:22:57.596Z,9.43
2022-10-13T01:25:53.592Z,10.73
2022-10-13T01:28:39.271Z,8.88
2022-10-13T01:31:12.915Z,9.35
2022-10-13T01:33:49.825Z,9.32
2022-10-13T01:36:46.712Z,10.00
2022-10-13T01:39:27.719Z,10.77
2022-10-13T01:42:03.150Z,11.07
2022-10-13T01:44:35.852Z,10.98
2022-10-13T01:47:07.447Z,9.15
2022-10-13T01:49:38.047Z,12.05
2022-10-13T01:52:10.442Z,13.35
2022-10-13T01:54:37.477Z,12.60
2022-10-13T01:57:04.719Z,13.27
2022-10-13T01:59:33.957Z,12.02
2022-10-13T02:02:07.118Z,11.52
2022-10-13T02:04:42.230Z,12.10
2022-10-13T02:07:18.756Z,11.10
2022-10-13T02:10:16.562Z,10.57
2022-10-13T02:12:53.654Z,10.55
2022-10-13T02:15:25.651Z,12.25
2022-10-13T02:17:55.901Z,10.80
2022-10-13T02:20:23.302Z,11.85
2022-10-13T02:22:56.642Z,9.23
2022-10-13T02:25:24.375Z,10.68
2022-10-13T02:27:52.958Z,10.63
2022-10-13T02:30:25.232Z,11.13
2022-10-13T02:32:52.849Z,9.90
2022-10-13T02:35:20.065Z,11.10
2022-10-13T02:37:50.119Z,10.25
2022-10-13T02:40:19.917Z,10.88
2022-10-13T02:42:51.467Z,10.60
2022-10-13T02:45:19.156Z,10.88
2022-10-13T02:47:46.555Z,10.50
2022-10-13T02:50:13.855Z,10.27
2022-10-13T02:52:41.228Z,10.65
2022-10-13T02:55:11.135Z,11.15
2022-10-13T02:57:38.402Z,11.40
2022-10-13T03:00:07.285Z,11.43
2022-10-13T03:02:36.955Z,11.98
2022-10-13T03:05:04.303Z,10.48
2022-10-13T03:07:31.574Z,11.38
2022-10-13T03:10:01.153Z,10.60
2022-10-13T03:12:30.607Z,9.57
2022-10-13T03:15:00.491Z,10.88
2022-10-13T03:17:27.831Z,9.82
2022-10-13T03:19:54.950Z,11.02
2022-10-13T03:22:24.461Z,12.13
2022-10-13T03:24:51.637Z,12.80
2022-10-13T03:27:18.882Z,11.80
2022-10-13T03:29:46.141Z,11.55
2022-10-13T03:32:13.295Z,12.43
2022-10-13T03:34:45.471Z,11.40
2022-10-13T03:37:14.966Z,12.38
2022-10-13T03:39:42.642Z,12.23
2022-10-13T03:42:10.298Z,13.82
2022-10-13T03:44:37.431Z,12.98
2022-10-13T03:47:04.883Z,12.82
2022-10-13T03:49:31.859Z,12.43
2022-10-13T03:51:59.130Z,12.30
2022-10-13T03:54:26.588Z,11.23
2022-10-13T03:56:55.904Z,11.82
2022-10-13T03:59:22.984Z,11.85
2022-10-13T04:01:50.602Z,11.73
2022-10-13T04:04:17.606Z,11.43
2022-10-13T04:06:44.647Z,11.75
2022-10-13T04:09:14.413Z,13.27
2022-10-13T04:11:41.620Z,12.77
2022-10-13T04:14:08.693Z,12.93
2022-10-13T04:16:36.268Z,12.30
2022-10-13T04:19:05.453Z,10.90
2022-10-13T04:21:34.113Z,11.25
2022-10-13T04:24:02.611Z,11.23
2022-10-13T04:26:34.000Z,11.45
2022-10-13T04:29:04.259Z,10.27
2022-10-13T04:31:32.506Z,11.65
2022-10-13T04:33:59.587Z,12.13
2022-10-13T04:36:27.167Z,12.80
2022-10-13T04:38:55.227Z,13.05
2022-10-13T04:41:22.769Z,14.20
2022-10-13T04:43:54.275Z,11.82
2022-10-13T04:46:25.438Z,13.18
2022-10-13T04:48:53.130Z,11.65
2022-10-13T04:51:24.090Z,12.40
2022-10-13T04:53:58.346Z,13.75
2022-10-13T04:56:28.799Z,16.33
2022-10-13T04:58:56.312Z,16.65
2022-10-13T05:01:24.708Z,17.58
2022-10-13T05:03:57.089Z,18.55
2022-10-13T05:06:34.219Z,15.73
2022-10-13T05:09:01.863Z,16.30
2022-10-13T05:11:32.190Z,15.10
2022-10-13T05:14:01.085Z,15.35
2022-10-13T05:16:28.184Z,15.23
2022-10-13T05:18:57.737Z,20.40
2022-10-13T05:21:27.593Z,15.60
2022-10-13T05:23:58.405Z,14.38
2022-10-13T05:26:29.345Z,14.63
2022-10-13T05:28:57.600Z,13.73
2022-10-13T05:31:26.203Z,13.70
2022-10-13T05:33:56.374Z,14.45
2022-10-13T05:36:34.763Z,13.13
2022-10-13T05:39:05.699Z,12.90
2022-10-13T05:41:33.154Z,13.25
2022-10-13T05:44:03.027Z,12.23
2022-10-13T05:46:30.699Z,22.58
2022-10-13T05:48:58.673Z,16.05
2022-10-13T05:51:31.747Z,14.07
2022-10-13T05:54:07.543Z,11.75
2022-10-13T05:56:44.608Z,11.65
2022-10-13T05:59:15.010Z,12.43
2022-10-13T06:01:43.124Z,11.32
2022-10-13T06:04:18.624Z,13.30
2022-10-13T06:06:47.589Z,13.30
2022-10-13T06:09:15.119Z,12.57
2022-10-13T06:11:42.783Z,11.52
2022-10-13T06:14:09.919Z,9.27
2022-10-13T06:16:36.937Z,8.98
2022-10-13T06:19:06.590Z,8.35
2022-10-13T06:21:39.248Z,8.77
2022-10-13T06:26:34.073Z,10.40
2022-10-13T06:29:01.225Z,11.38
2022-10-13T06:31:29.538Z,13.15
2022-10-13T06:33:57.797Z,12.75
2022-10-13T06:36:27.438Z,11.43
2022-10-13T06:38:56.131Z,10.73
2022-10-13T06:41:23.406Z,9.65
2022-10-13T06:43:50.544Z,9.35
2022-10-13T06:46:18.244Z,7.95
2022-10-13T06:48:45.574Z,8.27
2022-10-13T06:51:13.032Z,7.38
2022-10-13T06:53:40.434Z,7.00
2022-10-13T06:56:08.712Z,6.38
2022-10-13T06:58:37.572Z,7.03
2022-10-13T07:01:06.126Z,7.18
2022-10-13T07:03:33.692Z,6.35
2022-10-13T07:06:07.890Z,8.13
2022-10-13T07:08:35.729Z,7.82
2022-10-13T07:11:15.328Z,7.25
2022-10-13T07:13:46.228Z,6.97
2022-10-13T07:16:16.861Z,7.38
2022-10-13T07:18:44.068Z,7.03
2022-10-13T07:21:11.091Z,6.25
2022-10-13T07:23:38.628Z,7.35
2022-10-13T07:26:14.495Z,7.22
2022-10-13T07:28:42.828Z,6.97
2022-10-13T07:31:20.123Z,6.60
2022-10-13T07:33:51.268Z,6.93
2022-10-13T07:36:19.428Z,6.57
2022-10-13T07:38:46.934Z,6.70
2022-10-13T07:41:16.747Z,7.05
2022-10-13T07:43:46.231Z,7.10
2022-10-13T07:46:15.229Z,5.57
2022-10-13T07:48:44.855Z,5.45
2022-10-13T07:51:13.496Z,5.53
2022-10-13T07:53:43.972Z,5.53
2022-10-13T07:56:12.830Z,5.63
2022-10-13T07:58:45.790Z,5.97
2022-10-13T08:01:13.935Z,5.40
2022-10-13T08:03:47.345Z,5.70
2022-10-13T08:06:18.656Z,6.32
2022-10-13T08:08:48.153Z,5.65
2022-10-13T08:11:17.231Z,5.10
2022-10-13T08:13:51.711Z,4.47
2022-10-13T08:16:21.220Z,5.55
2022-10-13T08:18:48.983Z,4.72
2022-10-13T08:24:14.847Z,5.30
2022-10-13T08:26:46.318Z,4.93
2022-10-13T08:29:22.889Z,5.68
2022-10-13T08:31:54.354Z,5.35
2022-10-13T08:34:25.205Z,4.45
2022-10-13T08:36:53.901Z,4.88
2022-10-13T08:39:24.747Z,4.45
2022-10-13T08:41:54.078Z,4.82
2022-10-13T08:47:42.368Z,6.03
2022-10-13T08:50:21.918Z,5.68
2022-10-13T08:53:07.356Z,5.00
2022-10-13T08:55:44.547Z,6.05
2022-10-13T08:58:26.384Z,5.00
2022-10-13T09:01:24.869Z,4.60
2022-10-13T09:04:12.527Z,4.53
2022-10-13T09:06:45.103Z,4.07
2022-10-13T09:09:16.076Z,4.55
2022-10-13T09:11:47.787Z,5.10
2022-10-13T09:14:26.192Z,4.93
2022-10-13T09:16:57.596Z,4.38
2022-10-13T09:19:24.865Z,3.75
2022-10-13T09:22:13.180Z,3.95
2022-10-13T09:24:40.576Z,5.53
2022-10-13T09:27:16.813Z,4.22
2022-10-13T09:29:44.993Z,3.33
2022-10-13T09:32:20.642Z,3.55
2022-10-13T09:34:51.586Z,3.65
2022-10-13T09:37:24.450Z,3.77
2022-10-13T09:40:19.942Z,4.63
2022-10-13T09:42:55.781Z,4.22
2022-10-13T09:45:25.669Z,4.30
2022-10-13T09:48:01.939Z,4.10
2022-10-13T09:50:31.334Z,4.10
2022-10-13T09:53:20.078Z,4.30
2022-10-13T09:56:06.642Z,3.83
2022-10-13T09:58:38.580Z,3.30
2022-10-13T10:01:06.734Z,3.92
2022-10-13T10:03:37.174Z,3.95
2022-10-13T10:06:07.699Z,3.38
2022-10-13T10:09:05.866Z,3.28
2022-10-13T10:11:45.315Z,3.75
2022-10-13T10:14:24.285Z,4.10
2022-10-13T10:17:23.647Z,4.25
2022-10-13T10:20:18.502Z,4.15
2022-10-13T10:22:54.726Z,3.95
2022-10-13T10:25:38.841Z,4.55
2022-10-13T10:28:15.231Z,5.03
2022-10-13T10:31:24.355Z,4.03
2022-10-13T10:33:57.444Z,4.97
2022-10-13T10:36:37.411Z,5.05
2022-10-13T10:39:18.533Z,4.82
2022-10-13T10:41:56.773Z,4.77
2022-10-13T10:44:33.766Z,5.18
2022-10-13T10:47:23.656Z,5.55
2022-10-13T10:49:56.791Z,5.10
2022-10-13T10:52:54.720Z,4.70
2022-10-13T10:55:33.889Z,4.30
2022-10-13T10:58:12.994Z,4.50
2022-10-13T11:00:51.488Z,4.00
2022-10-13T11:03:48.424Z,3.65
2022-10-13T11:06:15.849Z,4.32
2022-10-13T11:08:45.945Z,3.65
2022-10-13T11:11:29.278Z,3.78
2022-10-13T11:14:05.408Z,3.53
2022-10-13T11:16:40.114Z,4.43
2022-10-13T11:19:30.225Z,4.43
2022-10-13T11:21:57.316Z,4.43
2022-10-13T11:24:33.969Z,4.65
2022-10-13T11:27:08.039Z,4.28
2022-10-13T11:29:44.564Z,4.68
2022-10-13T11:32:34.964Z,4.68
2022-10-13T11:35:06.455Z,3.72
2022-10-13T11:38:08.720Z,3.67
2022-10-13T11:40:43.654Z,4.50
2022-10-13T11:43:36.916Z,4.38
2022-10-13T11:46:10.285Z,4.00
2022-10-13T11:48:56.253Z,4.70
2022-10-13T11:51:49.225Z,4.82
2022-10-13T11:54:19.279Z,4.50
2022-10-13T11:56:51.407Z,4.47
2022-10-13T11:59:30.787Z,4.53
2022-10-13T12:02:17.031Z,4.95
2022-10-13T12:05:19.008Z,4.82
2022-10-13T12:07:51.834Z,5.47
2022-10-13T12:10:24.827Z,5.25
2022-10-13T12:12:53.250Z,5.78
2022-10-13T12:15:28.922Z,5.05
2022-10-13T12:17:56.450Z,5.63
2022-10-13T12:20:31.749Z,5.20
2022-10-13T12:23:01.735Z,5.10
2022-10-13T12:25:30.333Z,5.55
2022-10-13T12:28:02.308Z,5.75
2022-10-13T12:30:34.814Z,5.70
2022-10-13T12:33:02.078Z,9.43
2022-10-13T12:35:32.389Z,4.72
2022-10-13T12:38:06.755Z,4.85
2022-10-13T12:40:34.624Z,5.05
2022-10-13T12:43:04.129Z,4.82
2022-10-13T12:45:33.606Z,4.50
2022-10-13T12:48:00.938Z,5.22
2022-10-13T12:50:28.456Z,4.85
2022-10-13T12:53:08.267Z,5.72
2022-10-13T12:55:59.283Z,45.58
2022-10-13T12:58:31.045Z,5.45
2022-10-13T13:01:06.365Z,9.88
2022-10-13T13:03:37.494Z,7.85
2022-10-13T13:06:30.165Z,7.25
2022-10-13T13:09:12.852Z,7.90
2022-10-13T13:11:44.322Z,5.32
2022-10-13T13:14:24.891Z,5.57
2022-10-13T13:17:05.699Z,6.40
2022-10-13T13:19:34.235Z,7.70
2022-10-13T13:22:03.553Z,7.25
2022-10-13T13:24:39.709Z,6.20
2022-10-13T13:27:17.746Z,7.32
2022-10-13T13:29:45.533Z,6.28
2022-10-13T13:32:19.956Z,6.28
2022-10-13T13:34:50.085Z,6.75
2022-10-13T13:37:35.323Z,6.93
2022-10-13T13:40:03.211Z,6.20
2022-10-13T13:42:30.850Z,6.70
2022-10-13T13:44:58.112Z,7.30
2022-10-13T13:47:27.778Z,6.88
2022-10-13T13:49:56.962Z,6.78
2022-10-13T13:52:24.902Z,7.28
2022-10-13T13:54:52.590Z,7.60
2022-10-13T13:57:23.174Z,7.32
2022-10-13T13:59:52.500Z,8.23
2022-10-13T14:02:22.274Z,7.78
2022-10-13T14:04:50.218Z,10.93
2022-10-13T14:07:18.050Z,7.53
2022-10-13T14:09:45.739Z,6.93
2022-10-13T14:12:13.325Z,6.90
2022-10-13T14:14:40.517Z,7.03
2022-10-13T14:17:07.744Z,6.90
2022-10-13T14:19:35.263Z,6.63
2022-10-13T14:22:09.170Z,6.80
2022-10-13T14:24:37.030Z,6.95
2022-10-13T14:27:04.224Z,8.27
2022-10-13T14:29:33.494Z,6.65
2022-10-13T14:32:01.228Z,7.63
2022-10-13T14:34:30.775Z,7.10
2022-10-13T14:36:57.824Z,7.10
2022-10-13T14:39:25.578Z,6.38
2022-10-13T14:41:55.177Z,6.43
2022-10-13T14:44:22.188Z,7.28
2022-10-13T14:46:52.018Z,7.63
2022-10-13T14:49:19.129Z,7.20
2022-10-13T14:51:46.142Z,7.97
2022-10-13T14:54:14.184Z,9.77
2022-10-13T14:56:41.486Z,9.73
2022-10-13T14:59:12.668Z,7.57
2022-10-13T15:01:41.286Z,8.13
2022-10-13T15:04:11.608Z,8.60
2022-10-13T15:06:41.207Z,9.27
2022-10-13T15:11:36.952Z,10.52
2022-10-13T15:14:06.608Z,9.95
2022-10-13T15:16:34.212Z,10.63
2022-10-13T15:19:01.473Z,11.73
2022-10-13T15:21:28.647Z,10.63
2022-10-13T15:23:57.198Z,10.88
2022-10-13T15:26:24.274Z,11.75
2022-10-13T15:28:52.983Z,11.95
2022-10-13T15:31:22.615Z,11.90
2022-10-13T15:33:52.338Z,12.63
2022-10-13T15:36:20.734Z,16.08
2022-10-13T15:38:48.610Z,18.17
2022-10-13T15:41:15.962Z,23.38
2022-10-13T15:43:43.288Z,22.52
2022-10-13T15:46:13.220Z,22.30
2022-10-13T15:48:40.691Z,22.58
2022-10-13T15:51:16.372Z,20.80
2022-10-13T15:53:44.030Z,21.15
2022-10-13T15:56:11.239Z,19.45
2022-10-13T15:58:40.226Z,18.67
2022-10-13T16:01:09.013Z,17.58
2022-10-13T16:03:37.388Z,18.23
2022-10-13T16:06:07.328Z,17.83
2022-10-13T16:08:41.216Z,16.90
2022-10-13T16:11:13.794Z,17.50
2022-10-13T16:13:45.432Z,17.27
2022-10-13T16:16:12.954Z,18.67
2022-10-13T16:18:40.565Z,18.65
2022-10-13T16:21:19.313Z,18.10
2022-10-13T16:23:47.814Z,17.30
2022-10-13T16:26:16.552Z,16.70
2022-10-13T16:28:44.912Z,18.60
2022-10-13T16:31:16.901Z,19.88
2022-10-13T16:33:45.305Z,22.02
2022-10-13T16:36:18.600Z,20.80
2022-10-13T16:38:47.048Z,21.47
2022-10-13T16:41:16.478Z,20.13
2022-10-13T16:43:44.031Z,26.58
2022-10-13T16:46:13.499Z,20.50
2022-10-13T16:48:41.770Z,18.58
2022-10-13T16:51:13.032Z,16.90
2022-10-13T16:53:41.011Z,16.08
2022-10-13T16:56:10.880Z,15.93
2022-10-13T16:58:37.965Z,14.43
2022-10-13T17:01:07.366Z,15.88
2022-10-13T17:03:35.859Z,16.05
2022-10-13T17:06:04.058Z,15.70
2022-10-13T17:08:32.272Z,14.82
2022-10-13T17:11:02.556Z,14.38
2022-10-13T17:13:31.788Z,14.90
2022-10-13T17:15:59.524Z,16.02
2022-10-13T17:18:28.102Z,19.27
2022-10-13T17:20:57.764Z,18.02
2022-10-13T17:23:26.117Z,21.85
2022-10-13T17:25:54.541Z,24.65
2022-10-13T17:28:22.741Z,22.42
2022-10-13T17:31:04.329Z,22.20
2022-10-13T17:33:36.819Z,19.88
2022-10-13T17:36:07.814Z,20.50
2022-10-13T17:38:35.177Z,18.25
2022-10-13T17:41:05.178Z,19.08
2022-10-13T17:43:33.206Z,19.63
2022-10-13T17:49:02.618Z,20.48
2022-10-13T17:51:29.859Z,20.27
2022-10-13T17:53:59.082Z,19.65
2022-10-13T17:56:26.921Z,18.10
2022-10-13T17:58:55.032Z,16.35
2022-10-13T18:01:27.842Z,16.65
2022-10-13T18:03:58.340Z,15.77
2022-10-13T18:06:26.621Z,16.00
2022-10-13T18:08:54.101Z,17.55
2022-10-13T18:11:24.768Z,18.23
2022-10-13T18:13:52.220Z,17.42
2022-10-13T18:16:23.508Z,17.90
2022-10-13T18:18:53.289Z,18.10
2022-10-13T18:21:24.449Z,18.95
2022-10-13T18:23:52.980Z,19.48
2022-10-13T18:26:23.434Z,18.10
2022-10-13T18:28:51.540Z,20.80
2022-10-13T18:31:21.728Z,22.75
2022-10-13T18:33:49.588Z,24.88
2022-10-13T18:36:28.578Z,25.67
2022-10-13T18:39:11.219Z,24.40
2022-10-13T18:41:39.406Z,27.52
2022-10-13T18:44:07.190Z,29.33
2022-10-13T18:46:35.649Z,34.28
2022-10-13T18:49:04.336Z,36.63
2022-10-13T18:51:35.982Z,44.25
2022-10-13T18:54:06.098Z,45.00
2022-10-13T18:56:34.547Z,44.38
2022-10-13T18:59:02.574Z,44.13
2022-10-13T19:01:34.012Z,48.53
2022-10-13T19:04:04.458Z,49.40
2022-10-13T19:06:34.344Z,48.70
2022-10-13T19:09:07.944Z,44.50
2022-10-13T19:11:36.127Z,42.15
2022-10-13T19:14:04.735Z,39.72
2022-10-13T19:16:37.499Z,39.05
2022-10-13T19:19:05.241Z,37.03
2022-10-13T19:21:32.526Z,37.60
2022-10-13T19:24:00.292Z,38.72
2022-10-13T19:26:30.868Z,39.50
2022-10-13T19:29:16.706Z,40.40
2022-10-13T19:31:44.188Z,39.65
2022-10-13T19:34:13.117Z,41.22
2022-10-13T19:36:45.163Z,39.30
2022-10-13T19:39:23.810Z,36.03
2022-10-13T19:41:54.978Z,38.08
2022-10-13T19:44:25.294Z,39.67
2022-10-13T19:46:53.256Z,35.08
2022-10-13T19:49:24.903Z,33.53
2022-10-13T19:51:53.991Z,33.55
2022-10-13T19:54:21.684Z,36.33
2022-10-13T19:56:50.128Z,33.15
2022-10-13T19:59:19.595Z,33.35
2022-10-13T20:01:46.971Z,32.95
2022-10-13T20:04:15.474Z,31.88
2022-10-13T20:06:42.910Z,31.98
2022-10-13T20:09:10.124Z,33.55
2022-10-13T20:11:37.228Z,31.95
2022-10-13T20:14:07.206Z,31.65
2022-10-13T20:16:34.295Z,30.95
2022-10-13T20:19:01.619Z,31.45
2022-10-13T20:21:29.213Z,29.70
2022-10-13T20:23:58.825Z,30.50
2022-10-13T20:26:28.827Z,30.23
2022-10-13T20:28:58.557Z,29.20
2022-10-13T20:31:26.162Z,29.52
2022-10-13T20:33:55.527Z,30.20
2022-10-13T20:36:29.374Z,29.25
2022-10-13T20:38:59.181Z,28.40
2022-10-13T20:41:29.559Z,29.48
2022-10-13T20:43:58.153Z,29.27
2022-10-13T20:46:26.105Z,30.85
2022-10-13T20:49:11.906Z,30.50
2022-10-13T20:51:40.995Z,30.90
2022-10-13T20:54:12.488Z,31.40
2022-10-13T20:56:42.911Z,30.63
2022-10-13T20:59:14.225Z,27.40
2022-10-13T21:01:41.618Z,26.63
2022-10-13T21:04:12.336Z,28.27
2022-10-13T21:06:41.344Z,27.42
2022-10-13T21:09:09.341Z,28.48
2022-10-13T21:11:38.349Z,28.90
2022-10-13T21:14:08.185Z,28.45
2022-10-13T21:16:39.712Z,26.98
2022-10-13T21:19:07.625Z,28.25
2022-10-13T21:21:36.427Z,27.15
2022-10-13T21:24:06.698Z,27.65
2022-10-13T21:26:35.944Z,28.35
2022-10-13T21:29:04.093Z,28.05
2022-10-13T21:31:33.780Z,29.33
2022-10-13T21:34:01.409Z,28.70
2022-10-13T21:36:30.786Z,27.90
2022-10-13T21:39:01.749Z,27.80
2022-10-13T21:41:30.160Z,28.58
2022-10-13T21:44:02.354Z,26.85
2022-10-13T21:46:33.969Z,27.58
2022-10-13T21:49:05.573Z,27.85
2022-10-13T21:51:36.462Z,28.48
2022-10-13T21:54:12.443Z,27.25
2022-10-13T21:56:43.077Z,29.42
2022-10-13T21:59:12.482Z,30.40
2022-10-13T22:01:40.143Z,28.90
2022-10-13T22:04:07.949Z,30.38
2022-10-13T22:06:35.186Z,29.75
2022-10-13T22:09:06.225Z,29.48
2022-10-13T22:11:36.243Z,29.23
2022-10-13T22:14:06.232Z,28.55
2022-10-13T22:16:38.536Z,28.08
2022-10-13T22:19:06.577Z,28.65
2022-10-13T22:21:41.456Z,30.95
2022-10-13T22:24:12.331Z,31.48
2022-10-13T22:26:40.753Z,29.27
2022-10-13T22:29:09.828Z,30.95
2022-10-13T22:31:37.254Z,30.95
2022-10-13T22:34:05.022Z,29.60
2022-10-13T22:36:32.176Z,31.35
2022-10-13T22:39:01.963Z,29.05
2022-10-13T22:41:30.901Z,29.63
2022-10-13T22:43:59.189Z,31.02
2022-10-13T22:46:30.281Z,27.98
2022-10-13T22:49:01.010Z,28.48
2022-10-13T22:51:31.171Z,30.23
2022-10-13T22:53:59.226Z,28.30
2022-10-13T22:56:31.316Z,29.17
2022-10-13T22:59:01.271Z,29.05
2022-10-13T23:01:28.731Z,29.27
2022-10-13T23:03:59.415Z,29.98
2022-10-13T23:06:29.472Z,30.25
2022-10-13T23:08:59.347Z,30.58
2022-10-13T23:11:26.602Z,30.83
2022-10-13T23:13:54.207Z,30.83
2022-10-13T23:16:25.234Z,30.23
2022-10-13T23:18:53.705Z,30.38
2022-10-13T23:21:23.394Z,29.20
2022-10-13T23:23:55.689Z,31.00
2022-10-13T23:26:23.760Z,29.27
2022-10-13T23:28:51.496Z,32.03
2022-10-13T23:31:18.829Z,31.15
2022-10-13T23:33:47.441Z,28.95
2022-10-13T23:36:21.228Z,31.73
2022-10-13T23:38:53.328Z,29.67
2022-10-13T23:41:23.280Z,30.85
2022-10-13T23:43:50.911Z,30.27
2022-10-13T23:46:18.686Z,31.35
2022-10-13T23:48:46.265Z,31.27
2022-10-13T23:51:18.951Z,28.83
2022-10-13T23:53:46.769Z,29.90
2022-10-13T23:56:14.171Z,28.30
2022-10-13T23:58:43.151Z,29.27
